createdAt,value
2023-05-12T00:00:20.334Z,9.11
2023-05-12T00:02:47.511Z,9.28
2023-05-12T00:05:14.650Z,9.34
2023-05-12T00:07:41.580Z,9.41
2023-05-12T00:10:08.815Z,9.46
2023-05-12T00:12:35.835Z,9.52
2023-05-12T00:15:03.575Z,9.55
2023-05-12T00:17:34.221Z,9.68
2023-05-12T00:20:01.386Z,9.44
2023-05-12T00:22:32.750Z,9.58
2023-05-12T00:24:59.700Z,9.57
2023-05-12T00:27:26.716Z,9.49
2023-05-12T00:29:53.678Z,9.59
2023-05-12T00:32:20.718Z,9.66
2023-05-12T00:34:47.856Z,9.63
2023-05-12T00:37:14.829Z,9.52
2023-05-12T00:39:41.742Z,9.49
2023-05-12T00:42:08.869Z,9.40
2023-05-12T00:44:36.701Z,9.52
2023-05-12T00:47:04.958Z,9.24
2023-05-12T00:49:32.077Z,9.19
2023-05-12T00:51:59.516Z,9.17
2023-05-12T00:54:27.365Z,9.24
2023-05-12T00:56:55.215Z,9.31
2023-05-12T00:59:23.261Z,9.30
2023-05-12T01:01:50.454Z,9.18
2023-05-12T01:04:17.971Z,9.07
2023-05-12T01:06:54.129Z,9.19
2023-05-12T01:09:21.623Z,9.22
2023-05-12T01:11:49.037Z,9.23
2023-05-12T01:14:17.276Z,9.09
2023-05-12T01:16:52.682Z,9.09
2023-05-12T01:19:42.785Z,9.16
2023-05-12T01:22:12.435Z,8.99
2023-05-12T01:25:04.610Z,9.17
2023-05-12T01:27:33.940Z,9.14
2023-05-12T01:30:04.033Z,9.03
2023-05-12T01:32:36.433Z,8.91
2023-05-12T01:35:04.490Z,8.70
2023-05-12T01:37:33.444Z,8.59
2023-05-12T01:40:03.713Z,8.60
2023-05-12T01:42:32.132Z,8.53
2023-05-12T01:44:59.317Z,8.45
2023-05-12T01:47:27.457Z,8.55
2023-05-12T01:50:06.019Z,8.58
2023-05-12T01:52:33.319Z,8.63
2023-05-12T01:55:00.579Z,8.62
2023-05-12T01:57:32.823Z,8.65
2023-05-12T02:00:01.284Z,8.09
2023-05-12T02:02:34.453Z,7.59
2023-05-12T02:05:01.839Z,7.25
2023-05-12T02:07:30.559Z,6.99
2023-05-12T02:09:58.566Z,7.05
2023-05-12T02:12:26.358Z,7.01
2023-05-12T02:14:53.488Z,7.05
2023-05-12T02:17:20.928Z,7.16
2023-05-12T02:19:50.165Z,7.13
2023-05-12T02:22:17.138Z,7.38
2023-05-12T02:24:44.049Z,7.14
2023-05-12T02:27:11.007Z,6.98
2023-05-12T02:29:38.145Z,7.04
2023-05-12T02:32:05.981Z,7.22
2023-05-12T02:34:33.156Z,7.45
2023-05-12T02:37:00.144Z,7.47
2023-05-12T02:39:27.418Z,7.24
2023-05-12T02:41:54.359Z,7.05
2023-05-12T02:44:22.482Z,7.08
2023-05-12T02:46:50.774Z,7.12
2023-05-12T02:49:18.548Z,7.26
2023-05-12T02:51:48.403Z,7.31
2023-05-12T02:54:15.505Z,7.37
2023-05-12T02:56:42.547Z,7.62
2023-05-12T02:59:09.528Z,7.88
2023-05-12T03:01:36.495Z,7.96
2023-05-12T03:04:03.957Z,7.98
2023-05-12T03:06:32.388Z,7.75
2023-05-12T03:09:00.236Z,7.53
2023-05-12T03:11:27.442Z,7.59
2023-05-12T03:13:54.394Z,7.51
2023-05-12T03:16:21.491Z,7.66
2023-05-12T03:18:49.227Z,7.76
2023-05-12T03:21:16.281Z,7.71
2023-05-12T03:23:43.149Z,7.76
2023-05-12T03:26:10.039Z,7.66
2023-05-12T03:28:37.030Z,7.71
2023-05-12T03:31:04.222Z,7.70
2023-05-12T03:33:31.326Z,7.80
2023-05-12T03:35:58.669Z,7.76
2023-05-12T03:38:26.597Z,8.09
2023-05-12T03:41:06.344Z,8.08
2023-05-12T03:43:35.857Z,8.21
2023-05-12T03:46:03.953Z,8.26
2023-05-12T03:48:31.263Z,8.36
2023-05-12T03:50:59.088Z,8.48
2023-05-12T03:53:26.211Z,8.33
2023-05-12T03:55:53.433Z,8.09
2023-05-12T03:58:20.500Z,8.11
2023-05-12T04:00:50.291Z,8.21
2023-05-12T04:03:17.940Z,8.24
2023-05-12T04:05:45.131Z,8.39
2023-05-12T04:08:12.797Z,8.51
2023-05-12T04:10:40.804Z,8.30
2023-05-12T04:13:09.000Z,8.31
2023-05-12T04:15:36.660Z,8.28
2023-05-12T04:18:04.119Z,8.33
2023-05-12T04:20:31.085Z,8.67
2023-05-12T04:22:58.195Z,8.60
2023-05-12T04:25:25.176Z,8.70
2023-05-12T04:27:52.105Z,8.82
2023-05-12T04:30:19.701Z,8.86
2023-05-12T04:32:46.928Z,8.83
2023-05-12T04:35:13.906Z,8.68
2023-05-12T04:37:41.602Z,8.79
2023-05-12T04:40:09.070Z,8.79
2023-05-12T04:42:36.541Z,8.84
2023-05-12T04:45:04.208Z,8.99
2023-05-12T04:47:33.306Z,8.94
2023-05-12T04:50:00.389Z,8.92
2023-05-12T04:52:27.309Z,8.82
2023-05-12T04:54:54.319Z,8.69
2023-05-12T04:57:22.428Z,8.80
2023-05-12T04:59:50.082Z,8.79
2023-05-12T05:02:17.317Z,8.98
2023-05-12T05:04:45.080Z,9.11
2023-05-12T05:07:12.107Z,9.32
2023-05-12T05:09:39.234Z,9.44
2023-05-12T05:12:07.245Z,9.58
2023-05-12T05:14:34.640Z,9.66
2023-05-12T05:17:02.367Z,9.65
2023-05-12T05:19:44.550Z,9.64
2023-05-12T05:22:17.128Z,9.59
2023-05-12T05:24:45.219Z,9.70
2023-05-12T05:27:12.734Z,9.96
2023-05-12T05:29:39.734Z,9.90
2023-05-12T05:32:08.429Z,10.00
2023-05-12T05:34:35.969Z,10.13
2023-05-12T05:37:03.572Z,10.12
2023-05-12T05:39:31.052Z,10.14
2023-05-12T05:41:58.331Z,10.23
2023-05-12T05:44:25.788Z,10.44
2023-05-12T05:46:53.671Z,10.89
2023-05-12T05:49:21.838Z,11.11
2023-05-12T05:51:48.856Z,11.21
2023-05-12T05:54:16.274Z,11.11
2023-05-12T05:56:52.798Z,10.75
2023-05-12T05:59:19.930Z,10.86
2023-05-12T06:01:47.075Z,10.86
2023-05-12T06:04:14.189Z,10.93
2023-05-12T06:06:41.324Z,11.21
2023-05-12T06:09:09.676Z,11.42
2023-05-12T06:11:36.649Z,11.50
2023-05-12T06:14:03.696Z,11.58
2023-05-12T06:16:30.757Z,11.85
2023-05-12T06:18:57.819Z,12.04
2023-05-12T06:21:25.076Z,12.12
2023-05-12T06:23:52.208Z,12.28
2023-05-12T06:26:19.121Z,12.59
2023-05-12T06:28:46.068Z,12.68
2023-05-12T06:31:13.315Z,12.67
2023-05-12T06:33:40.303Z,12.83
2023-05-12T06:36:07.832Z,13.04
2023-05-12T06:38:34.747Z,13.15
2023-05-12T06:41:01.669Z,13.30
2023-05-12T06:43:28.732Z,13.21
2023-05-12T06:45:57.005Z,12.87
2023-05-12T06:48:24.395Z,12.89
2023-05-12T06:50:51.513Z,13.21
2023-05-12T06:53:18.845Z,13.17
2023-05-12T06:55:47.165Z,13.27
2023-05-12T06:58:14.289Z,13.31
2023-05-12T07:00:41.250Z,13.11
2023-05-12T07:03:10.286Z,13.25
2023-05-12T07:05:37.724Z,12.65
2023-05-12T07:08:05.570Z,12.51
2023-05-12T07:10:33.356Z,12.61
2023-05-12T07:13:00.399Z,12.74
2023-05-12T07:15:27.496Z,12.82
2023-05-12T07:17:55.873Z,12.85
2023-05-12T07:20:23.483Z,13.09
2023-05-12T07:22:52.290Z,12.97
2023-05-12T07:25:19.697Z,12.83
2023-05-12T07:27:47.948Z,12.79
2023-05-12T07:30:15.163Z,12.77
2023-05-12T07:32:43.217Z,12.64
2023-05-12T07:35:10.676Z,12.83
2023-05-12T07:37:37.766Z,13.25
2023-05-12T07:40:05.208Z,13.20
2023-05-12T07:42:32.684Z,13.08
2023-05-12T07:44:59.818Z,13.01
2023-05-12T07:47:28.849Z,13.20
2023-05-12T07:49:55.856Z,13.45
2023-05-12T07:52:24.229Z,13.77
2023-05-12T07:54:51.246Z,13.79
2023-05-12T07:57:18.281Z,13.73
2023-05-12T07:59:45.456Z,14.15
2023-05-12T08:02:13.046Z,14.46
2023-05-12T08:04:42.100Z,14.67
2023-05-12T08:07:10.881Z,14.39
2023-05-12T08:09:37.933Z,14.43
2023-05-12T08:12:05.379Z,14.90
2023-05-12T08:14:32.250Z,14.72
2023-05-12T08:16:59.527Z,14.78
2023-05-12T08:19:26.495Z,14.82
2023-05-12T08:21:53.753Z,14.78
2023-05-12T08:24:21.928Z,14.68
2023-05-12T08:26:48.923Z,14.70
2023-05-12T08:29:16.702Z,14.57
2023-05-12T08:31:43.642Z,14.76
2023-05-12T08:34:11.396Z,14.38
2023-05-12T08:36:41.748Z,14.39
2023-05-12T08:39:11.902Z,14.22
2023-05-12T08:41:56.140Z,14.08
2023-05-12T08:44:23.794Z,14.26
2023-05-12T08:46:52.743Z,14.47
2023-05-12T08:49:22.880Z,15.07
2023-05-12T08:51:57.755Z,15.24
2023-05-12T08:54:27.972Z,15.97
2023-05-12T08:59:26.146Z,16.03
2023-05-12T09:01:55.201Z,15.20
2023-05-12T09:04:22.579Z,15.69
2023-05-12T09:06:51.704Z,16.13
2023-05-12T09:09:20.798Z,15.75
2023-05-12T09:11:50.048Z,16.14
2023-05-12T09:14:21.947Z,16.46
2023-05-12T09:16:52.465Z,15.66
2023-05-12T09:19:22.326Z,15.97
2023-05-12T09:21:49.404Z,15.35
2023-05-12T09:24:16.448Z,15.20
2023-05-12T09:26:51.787Z,15.54
2023-05-12T09:29:30.740Z,15.92
2023-05-12T09:32:03.424Z,15.82
2023-05-12T09:34:32.714Z,15.80
2023-05-12T09:37:01.482Z,15.86
2023-05-12T09:39:29.176Z,16.03
2023-05-12T09:41:56.855Z,15.48
2023-05-12T09:44:25.233Z,15.68
2023-05-12T09:46:52.968Z,15.24
2023-05-12T09:49:28.052Z,15.69
2023-05-12T09:51:58.923Z,15.61
2023-05-12T09:54:30.337Z,15.89
2023-05-12T09:56:59.773Z,16.17
2023-05-12T09:59:32.770Z,15.87
2023-05-12T10:02:01.606Z,15.31
2023-05-12T10:04:32.560Z,15.75
2023-05-12T10:07:00.341Z,15.53
2023-05-12T10:09:34.185Z,15.62
2023-05-12T10:12:04.420Z,15.82
2023-05-12T10:14:32.586Z,16.32
2023-05-12T10:16:59.962Z,15.38
2023-05-12T10:19:28.632Z,15.93
2023-05-12T10:21:57.353Z,15.74
2023-05-12T10:24:28.445Z,16.11
2023-05-12T10:26:59.846Z,16.20
2023-05-12T10:29:32.962Z,16.66
2023-05-12T10:32:03.777Z,16.91
2023-05-12T10:34:34.921Z,16.85
2023-05-12T10:37:08.417Z,16.76
2023-05-12T10:39:35.773Z,16.85
2023-05-12T10:42:11.994Z,17.06
2023-05-12T10:44:51.127Z,17.00
2023-05-12T10:47:18.487Z,17.23
2023-05-12T10:49:45.477Z,16.63
2023-05-12T10:52:13.734Z,16.22
2023-05-12T10:54:45.685Z,16.58
2023-05-12T10:57:17.951Z,16.99
2023-05-12T10:59:51.361Z,16.75
2023-05-12T11:02:21.140Z,15.94
2023-05-12T11:04:51.432Z,16.13
2023-05-12T11:07:30.591Z,16.45
2023-05-12T11:10:02.878Z,15.54
2023-05-12T11:12:38.270Z,15.82
2023-05-12T11:15:07.054Z,15.52
2023-05-12T11:17:37.952Z,15.29
2023-05-12T11:20:05.545Z,15.90
2023-05-12T11:22:33.959Z,16.06
2023-05-12T11:25:10.253Z,16.56
2023-05-12T11:27:42.433Z,16.63
2023-05-12T11:30:11.177Z,16.89
2023-05-12T11:32:38.685Z,16.88
2023-05-12T11:35:17.804Z,15.95
2023-05-12T11:37:46.664Z,15.61
2023-05-12T11:40:19.198Z,16.28
2023-05-12T11:42:52.139Z,16.36
2023-05-12T11:45:28.485Z,15.87
2023-05-12T11:48:13.850Z,16.07
2023-05-12T11:50:42.889Z,16.11
2023-05-12T11:53:17.435Z,16.09
2023-05-12T11:55:56.388Z,16.57
2023-05-12T11:58:26.863Z,17.12
2023-05-12T12:00:54.785Z,17.28
2023-05-12T12:03:21.960Z,16.99
2023-05-12T12:06:00.382Z,16.82
2023-05-12T12:08:27.732Z,16.76
2023-05-12T12:10:55.490Z,16.96
2023-05-12T12:13:24.118Z,16.95
2023-05-12T12:15:51.833Z,16.96
2023-05-12T12:18:21.749Z,17.02
2023-05-12T12:20:48.805Z,17.15
2023-05-12T12:23:16.020Z,17.34
2023-05-12T12:25:43.723Z,16.79
2023-05-12T12:28:11.051Z,16.73
2023-05-12T12:30:38.258Z,17.08
2023-05-12T12:33:05.247Z,17.34
2023-05-12T12:35:32.330Z,17.40
2023-05-12T12:37:59.353Z,17.31
2023-05-12T12:40:26.468Z,17.54
2023-05-12T12:42:53.565Z,17.83
2023-05-12T12:45:20.813Z,17.71
2023-05-12T12:47:48.134Z,17.45
2023-05-12T12:50:15.266Z,17.79
2023-05-12T12:52:42.372Z,17.88
2023-05-12T12:55:10.061Z,17.47
2023-05-12T12:57:37.073Z,17.37
2023-05-12T13:00:05.655Z,17.24
2023-05-12T13:02:37.928Z,17.26
2023-05-12T13:05:07.203Z,17.33
2023-05-12T13:07:34.569Z,17.17
2023-05-12T13:10:01.732Z,16.89
2023-05-12T13:12:33.136Z,16.96
2023-05-12T13:15:00.504Z,17.23
2023-05-12T13:17:27.696Z,17.35
2023-05-12T13:19:54.962Z,17.38
2023-05-12T13:22:22.280Z,17.32
2023-05-12T13:24:49.241Z,17.52
2023-05-12T13:27:16.378Z,17.61
2023-05-12T13:29:47.214Z,17.28
2023-05-12T13:32:15.378Z,17.16
2023-05-12T13:34:42.612Z,16.56
2023-05-12T13:37:09.620Z,16.54
2023-05-12T13:39:36.785Z,16.87
2023-05-12T13:42:04.585Z,16.79
2023-05-12T13:44:31.658Z,16.65
2023-05-12T13:46:58.604Z,17.07
2023-05-12T13:49:25.799Z,17.42
2023-05-12T13:51:52.852Z,17.36
2023-05-12T13:54:19.938Z,17.35
2023-05-12T13:56:47.304Z,17.24
2023-05-12T13:59:14.275Z,17.28
2023-05-12T14:01:41.318Z,17.41
2023-05-12T14:04:08.529Z,16.66
2023-05-12T14:06:35.556Z,16.89
2023-05-12T14:09:04.069Z,17.06
2023-05-12T14:11:31.214Z,16.91
2023-05-12T14:14:00.768Z,17.00
2023-05-12T14:16:27.818Z,17.15
2023-05-12T14:18:55.582Z,17.24
2023-05-12T14:21:22.818Z,17.43
2023-05-12T14:23:51.191Z,17.44
2023-05-12T14:26:19.465Z,17.35
2023-05-12T14:28:46.819Z,17.40
2023-05-12T14:31:14.021Z,16.75
2023-05-12T14:33:41.184Z,17.07
2023-05-12T14:36:08.999Z,17.34
2023-05-12T14:38:51.521Z,17.31
2023-05-12T14:41:27.753Z,17.65
2023-05-12T14:43:54.747Z,17.66
2023-05-12T14:46:21.902Z,17.58
2023-05-12T14:48:49.004Z,17.52
2023-05-12T14:51:15.963Z,17.41
2023-05-12T14:53:42.947Z,17.61
2023-05-12T14:56:10.031Z,17.35
2023-05-12T14:58:37.083Z,16.83
2023-05-12T15:01:04.284Z,16.75
2023-05-12T15:03:33.637Z,16.84
2023-05-12T15:08:30.443Z,16.96
2023-05-12T15:10:57.446Z,17.06
2023-05-12T15:13:24.471Z,17.05
2023-05-12T15:15:52.946Z,16.88
2023-05-12T15:18:22.319Z,16.41
2023-05-12T15:20:49.366Z,16.58
2023-05-12T15:23:16.320Z,16.40
2023-05-12T15:25:43.303Z,16.63
2023-05-12T15:28:10.309Z,16.64
2023-05-12T15:30:37.275Z,16.67
2023-05-12T15:33:04.508Z,16.54
2023-05-12T15:35:32.673Z,16.77
2023-05-12T15:37:59.860Z,16.79
2023-05-12T15:40:26.867Z,16.57
2023-05-12T15:42:53.940Z,16.39
2023-05-12T15:45:21.223Z,16.26
2023-05-12T15:47:48.397Z,16.47
2023-05-12T15:50:19.754Z,16.57
2023-05-12T15:52:47.437Z,16.48
2023-05-12T15:55:15.158Z,16.55
2023-05-12T15:57:42.519Z,16.72
2023-05-12T16:00:09.930Z,16.54
2023-05-12T16:02:40.708Z,16.47
2023-05-12T16:05:09.341Z,16.48
2023-05-12T16:07:36.343Z,16.28
2023-05-12T16:10:03.776Z,16.30
2023-05-12T16:12:31.551Z,16.40
2023-05-12T16:14:58.556Z,16.40
2023-05-12T16:17:25.749Z,16.47
2023-05-12T16:19:53.675Z,16.39
2023-05-12T16:22:20.690Z,16.45
2023-05-12T16:24:48.142Z,16.47
2023-05-12T16:27:15.329Z,16.35
2023-05-12T16:29:45.863Z,16.29
2023-05-12T16:32:13.017Z,16.02
2023-05-12T16:34:40.046Z,15.96
2023-05-12T16:37:07.104Z,15.81
2023-05-12T16:39:35.886Z,15.81
2023-05-12T16:42:03.475Z,15.62
2023-05-12T16:44:30.407Z,15.56
2023-05-12T16:46:57.367Z,15.56
2023-05-12T16:49:24.363Z,15.50
2023-05-12T16:51:51.542Z,15.48
2023-05-12T16:54:18.702Z,15.44
2023-05-12T16:56:45.972Z,15.41
2023-05-12T16:59:12.919Z,15.29
2023-05-12T17:01:39.939Z,15.34
2023-05-12T17:04:07.966Z,15.24
2023-05-12T17:06:35.077Z,14.99
2023-05-12T17:09:02.164Z,14.93
2023-05-12T17:11:29.278Z,15.05
2023-05-12T17:13:56.215Z,15.05
2023-05-12T17:16:23.180Z,15.01
2023-05-12T17:21:20.313Z,14.81
2023-05-12T17:23:47.416Z,14.88
2023-05-12T17:26:14.795Z,14.82
2023-05-12T17:28:42.408Z,14.84
2023-05-12T17:31:09.409Z,14.80
2023-05-12T17:33:36.324Z,14.68
2023-05-12T17:36:12.530Z,14.26
2023-05-12T17:38:41.066Z,14.22
2023-05-12T17:41:08.217Z,14.25
2023-05-12T17:43:35.190Z,14.17
2023-05-12T17:46:03.716Z,14.26
2023-05-12T17:48:33.621Z,14.28
2023-05-12T17:51:03.135Z,14.29
2023-05-12T17:53:31.254Z,14.14
2023-05-12T17:55:58.904Z,14.08
2023-05-12T17:58:26.448Z,13.89
2023-05-12T18:00:53.834Z,13.72
2023-05-12T18:03:24.035Z,13.68
2023-05-12T18:05:53.208Z,13.76
2023-05-12T18:08:20.776Z,13.67
2023-05-12T18:10:47.854Z,13.71
2023-05-12T18:13:15.587Z,13.74
2023-05-12T18:15:42.943Z,13.67
2023-05-12T18:18:10.451Z,13.77
2023-05-12T18:20:37.526Z,13.91
2023-05-12T18:23:04.715Z,13.88
2023-05-12T18:25:31.885Z,13.86
2023-05-12T18:27:58.832Z,13.72
2023-05-12T18:30:25.770Z,13.41
2023-05-12T18:32:56.536Z,13.40
2023-05-12T18:35:24.804Z,13.26
2023-05-12T18:37:51.832Z,13.34
2023-05-12T18:40:18.759Z,13.17
2023-05-12T18:42:45.669Z,13.22
2023-05-12T18:45:12.728Z,13.12
2023-05-12T18:47:39.967Z,13.10
2023-05-12T18:50:07.972Z,13.27
2023-05-12T18:52:35.626Z,13.12
2023-05-12T18:55:03.050Z,13.34
2023-05-12T18:57:33.829Z,13.31
2023-05-12T19:00:01.313Z,13.33
2023-05-12T19:02:35.613Z,13.13
2023-05-12T19:05:02.922Z,13.25
2023-05-12T19:07:32.500Z,13.29
2023-05-12T19:09:59.814Z,13.20
2023-05-12T19:12:26.882Z,13.24
2023-05-12T19:14:54.284Z,13.10
2023-05-12T19:17:22.106Z,12.99
2023-05-12T19:19:50.631Z,12.55
2023-05-12T19:22:17.914Z,12.87
2023-05-12T19:24:45.196Z,12.92
2023-05-12T19:27:12.317Z,13.01
2023-05-12T19:29:39.197Z,13.09
2023-05-12T19:32:06.770Z,13.12
2023-05-12T19:34:33.883Z,13.10
2023-05-12T19:37:01.233Z,12.82
2023-05-12T19:39:29.337Z,12.95
2023-05-12T19:41:56.412Z,13.00
2023-05-12T19:44:23.298Z,12.87
2023-05-12T19:46:50.968Z,12.97
2023-05-12T19:49:17.960Z,12.88
2023-05-12T19:51:44.919Z,12.96
2023-05-12T19:54:11.845Z,12.98
2023-05-12T19:56:38.971Z,12.93
2023-05-12T19:59:05.963Z,13.02
2023-05-12T20:01:32.959Z,12.87
2023-05-12T20:03:59.967Z,13.00
2023-05-12T20:06:26.885Z,12.63
2023-05-12T20:08:53.810Z,12.19
2023-05-12T20:11:20.792Z,12.29
2023-05-12T20:13:47.803Z,12.16
2023-05-12T20:16:14.769Z,12.11
2023-05-12T20:18:41.832Z,12.11
2023-05-12T20:21:08.830Z,12.34
2023-05-12T20:23:36.347Z,12.26
2023-05-12T20:26:04.195Z,12.40
2023-05-12T20:28:31.352Z,12.54
2023-05-12T20:30:58.291Z,12.72
2023-05-12T20:33:25.352Z,12.57
2023-05-12T20:35:52.366Z,12.53
2023-05-12T20:38:19.471Z,12.68
2023-05-12T20:40:46.614Z,12.64
2023-05-12T20:43:14.565Z,12.59
2023-05-12T20:45:41.735Z,12.53
2023-05-12T20:48:09.289Z,12.50
2023-05-12T20:50:36.384Z,12.65
2023-05-12T20:53:04.606Z,12.77
2023-05-12T20:55:34.715Z,12.67
2023-05-12T20:58:01.656Z,12.73
2023-05-12T21:00:28.587Z,12.73
2023-05-12T21:02:56.157Z,12.63
2023-05-12T21:05:23.248Z,12.69
2023-05-12T21:07:50.308Z,12.70
2023-05-12T21:10:17.544Z,12.78
2023-05-12T21:12:44.630Z,12.73
2023-05-12T21:15:11.620Z,12.72
2023-05-12T21:17:39.555Z,12.66
2023-05-12T21:20:08.991Z,12.72
2023-05-12T21:22:37.369Z,12.55
2023-05-12T21:25:05.194Z,12.54
2023-05-12T21:27:32.188Z,12.68
2023-05-12T21:29:59.209Z,12.33
2023-05-12T21:32:26.121Z,12.39
2023-05-12T21:34:53.703Z,12.22
2023-05-12T21:37:20.676Z,11.85
2023-05-12T21:39:47.625Z,11.64
2023-05-12T21:42:14.603Z,11.55
2023-05-12T21:44:41.563Z,11.51
2023-05-12T21:47:08.663Z,11.43
2023-05-12T21:49:35.716Z,11.43
2023-05-12T21:52:02.737Z,11.45
2023-05-12T21:54:33.458Z,11.25
2023-05-12T21:57:01.084Z,11.18
2023-05-12T21:59:29.166Z,11.25
2023-05-12T22:01:56.486Z,11.23
2023-05-12T22:04:23.715Z,11.52
2023-05-12T22:06:51.055Z,11.71
2023-05-12T22:09:18.460Z,11.69
2023-05-12T22:11:45.348Z,11.50
2023-05-12T22:14:12.231Z,11.65
2023-05-12T22:16:42.228Z,11.40
2023-05-12T22:19:10.259Z,11.24
2023-05-12T22:21:37.409Z,11.36
2023-05-12T22:24:04.576Z,11.32
2023-05-12T22:26:31.586Z,11.35
2023-05-12T22:28:58.524Z,11.42
2023-05-12T22:31:25.685Z,11.34
2023-05-12T22:33:52.711Z,11.26
2023-05-12T22:36:19.687Z,11.16
2023-05-12T22:38:46.607Z,11.05
2023-05-12T22:41:13.538Z,11.12
2023-05-12T22:43:40.425Z,11.02
2023-05-12T22:46:09.594Z,10.89
2023-05-12T22:48:39.456Z,10.91
2023-05-12T22:51:07.035Z,10.91
2023-05-12T22:53:41.293Z,11.10
2023-05-12T22:56:08.617Z,11.22
2023-05-12T22:58:35.630Z,11.10
2023-05-12T23:01:02.692Z,10.87
2023-05-12T23:03:29.704Z,10.99
2023-05-12T23:05:56.575Z,10.90
2023-05-12T23:08:23.524Z,10.86
2023-05-12T23:10:50.616Z,10.96
2023-05-12T23:13:17.554Z,10.82
2023-05-12T23:15:44.510Z,10.77
2023-05-12T23:18:11.452Z,10.61
2023-05-12T23:20:38.469Z,10.55
2023-05-12T23:23:05.402Z,10.44
2023-05-12T23:25:32.692Z,10.53
2023-05-12T23:27:59.614Z,10.58
2023-05-12T23:30:26.667Z,10.39
2023-05-12T23:32:53.697Z,10.47
2023-05-12T23:35:20.730Z,10.57
2023-05-12T23:37:47.819Z,10.56
2023-05-12T23:40:14.723Z,10.54
2023-05-12T23:42:41.799Z,10.40
2023-05-12T23:45:09.146Z,10.08
2023-05-12T23:47:36.232Z,10.09
2023-05-12T23:50:03.562Z,9.94
2023-05-12T23:52:31.727Z,9.37
2023-05-12T23:54:58.671Z,8.96
2023-05-12T23:57:25.664Z,8.84
2023-05-12T23:59:52.595Z,9.02
